Time;durP1;ratioP1;P1;durP2;ratioP2;P2;SDS_P1;SDS_P2;PMS_P1;PMS_P2;Temp;Humidity;BMP_temperature;BMP_pressure;BME280_temperature;BME280_humidity;BME280_pressure;Samples;Min_cycle;Max_cycle;Signal;HPM_P1;HPM_P2
2021/04/30 00:00:00;;;;;;;8.07;6.97;;;23.00;47.50;;;;;;6260283;22;20365;-87
2021/04/30 00:02:26;;;;;;;9.20;7.90;;;23.00;47.50;;;;;;6260412;22;20894;-87
2021/04/30 00:04:51;;;;;;;9.73;6.97;;;23.00;47.50;;;;;;6234007;23;20150;-87
2021/04/30 00:07:17;;;;;;;8.00;7.20;;;23.00;47.50;;;;;;6261188;22;20150;-87
2021/04/30 00:09:43;;;;;;;10.10;8.10;;;23.00;47.50;;;;;;6234067;23;20204;-87
2021/04/30 00:12:10;;;;;;;9.67;7.40;;;23.00;47.50;;;;;;6233747;23;20716;-86
2021/04/30 00:14:38;;;;;;;8.73;6.90;;;23.00;47.40;;;;;;6232947;23;20174;-86
2021/04/30 00:17:04;;;;;;;7.80;7.00;;;23.00;47.50;;;;;;6234297;23;20370;-86
2021/04/30 00:19:32;;;;;;;7.77;6.53;;;23.00;47.50;;;;;;6234605;23;20381;-86
2021/04/30 00:21:58;;;;;;;8.13;7.07;;;23.00;47.50;;;;;;6236573;23;20393;-86
2021/04/30 00:24:27;;;;;;;7.53;6.40;;;23.00;47.50;;;;;;6237111;23;20420;-86
2021/04/30 00:26:55;;;;;;;7.47;6.77;;;23.00;47.50;;;;;;6235042;23;20169;-85
2021/04/30 00:29:21;;;;;;;8.03;7.03;;;23.00;47.50;;;;;;6264322;22;20369;-86
2021/04/30 00:31:48;;;;;;;8.73;7.50;;;23.00;47.50;;;;;;6237349;23;20412;-87
2021/04/30 00:34:14;;;;;;;8.00;7.10;;;22.90;47.50;;;;;;6235408;23;20182;-87
2021/04/30 00:36:40;;;;;;;8.70;6.60;;;22.90;47.40;;;;;;6238032;23;20385;-86
2021/04/30 00:39:06;;;;;;;7.20;6.50;;;22.90;47.40;;;;;;6233742;23;20374;-86
2021/04/30 00:41:32;;;;;;;8.20;7.40;;;22.90;47.50;;;;;;6234062;23;20439;-86
2021/04/30 00:44:06;;;;;;;8.30;6.83;;;22.90;47.50;;;;;;6260260;22;20153;-86
2021/04/30 00:46:32;;;;;;;7.20;6.50;;;22.90;47.50;;;;;;6233036;23;20597;-86
2021/04/30 00:49:01;;;;;;;7.30;6.33;;;22.90;47.50;;;;;;6260104;22;20369;-86
2021/04/30 00:51:27;;;;;;;6.33;5.63;;;22.90;47.50;;;;;;6260050;22;20374;-87
2021/04/30 00:53:53;;;;;;;7.57;6.50;;;22.90;47.60;;;;;;6259297;22;20467;-87
2021/04/30 00:56:20;;;;;;;6.27;5.67;;;22.90;47.50;;;;;;6259701;22;20581;-87
2021/04/30 00:58:46;;;;;;;7.27;5.80;;;22.90;47.50;;;;;;6233555;23;20435;-86
2021/04/30 01:01:13;;;;;;;7.23;6.20;;;22.90;47.50;;;;;;6259696;22;20721;-87
2021/04/30 01:03:41;;;;;;;7.93;6.23;;;22.90;47.60;;;;;;6232975;23;20472;-87
2021/04/30 01:06:07;;;;;;;7.33;6.10;;;22.90;47.50;;;;;;6232975;23;20381;-86
2021/04/30 01:08:33;;;;;;;6.50;5.43;;;22.90;47.50;;;;;;6232952;23;20385;-86
2021/04/30 01:10:59;;;;;;;6.90;6.03;;;22.90;47.50;;;;;;6260856;22;20153;-87
2021/04/30 01:13:24;;;;;;;6.77;6.00;;;22.90;47.50;;;;;;6235868;23;20166;-87
2021/04/30 01:19:23;;;;;;;7.93;6.20;;;22.90;47.50;;;;;;6260950;23;20157;-87
2021/04/30 01:21:54;;;;;;;6.93;6.20;;;22.90;47.60;;;;;;6233856;23;20408;-87
2021/04/30 01:24:20;;;;;;;6.87;5.90;;;22.80;47.50;;;;;;6234265;23;20384;-87
2021/04/30 01:26:49;;;;;;;5.63;5.03;;;22.80;47.50;;;;;;6233693;23;20386;-88
2021/04/30 01:29:16;;;;;;;7.10;6.33;;;22.90;47.60;;;;;;6232684;23;20911;-88
2021/04/30 01:31:46;;;;;;;6.93;5.70;;;22.80;47.50;;;;;;6259918;22;20824;-88
2021/04/30 01:34:13;;;;;;;6.80;6.10;;;22.90;47.60;;;;;;6260719;23;20405;-88
2021/04/30 01:36:42;;;;;;;7.30;6.37;;;22.90;47.60;;;;;;6233048;23;20431;-88
2021/04/30 01:39:12;;;;;;;6.80;6.10;;;22.90;47.60;;;;;;6260126;22;20696;-88
2021/04/30 01:41:39;;;;;;;6.43;5.83;;;22.90;47.60;;;;;;6232387;23;20397;-87
2021/04/30 01:44:13;;;;;;;8.53;6.57;;;22.80;47.50;;;;;;6232578;23;20393;-88
2021/04/30 01:46:40;;;;;;;6.10;5.50;;;22.90;47.60;;;;;;6233406;23;20468;-87
2021/04/30 01:49:07;;;;;;;7.83;6.07;;;22.80;47.50;;;;;;6260703;22;20373;-87
2021/04/30 01:51:35;;;;;;;6.93;6.30;;;22.80;47.50;;;;;;6208664;23;20503;-88
2021/04/30 01:54:04;;;;;;;6.23;5.30;;;22.80;47.50;;;;;;6232957;23;20425;-87
2021/04/30 01:56:31;;;;;;;7.10;5.67;;;22.80;47.50;;;;;;6261024;22;20369;-87
2021/04/30 01:58:57;;;;;;;6.90;5.93;;;22.80;47.50;;;;;;6232616;23;20379;-87
2021/04/30 02:01:22;;;;;;;6.50;5.90;;;22.80;47.50;;;;;;6259258;22;20412;-87
2021/04/30 02:03:48;;;;;;;5.57;5.07;;;22.80;47.60;;;;;;6233445;23;20176;-88
2021/04/30 02:06:14;;;;;;;6.03;5.37;;;22.80;47.60;;;;;;6235208;23;20218;-87
2021/04/30 02:08:40;;;;;;;5.97;5.37;;;22.80;48.10;;;;;;6261653;22;20147;-88
2021/04/30 02:11:08;;;;;;;6.10;5.50;;;22.80;47.60;;;;;;6235098;23;20488;-87
2021/04/30 02:13:36;;;;;;;6.47;5.80;;;22.80;47.60;;;;;;6235981;23;20154;-88
2021/04/30 02:16:02;;;;;;;6.33;5.73;;;22.80;47.60;;;;;;6261059;22;20419;-87
2021/04/30 02:18:28;;;;;;;6.30;5.70;;;22.80;47.60;;;;;;6235042;23;20381;-87
2021/04/30 02:20:54;;;;;;;5.93;5.33;;;22.80;47.60;;;;;;6233848;23;20403;-88
2021/04/30 02:23:20;;;;;;;5.57;4.97;;;22.80;47.60;;;;;;6234380;23;20170;-88
2021/04/30 02:25:46;;;;;;;6.40;5.80;;;22.80;47.60;;;;;;6235594;23;20215;-87
2021/04/30 02:28:12;;;;;;;5.87;5.27;;;22.80;47.60;;;;;;6261111;22;20426;-88
2021/04/30 02:30:42;;;;;;;5.90;5.30;;;22.80;47.60;;;;;;6260755;22;20879;-88
2021/04/30 02:33:10;;;;;;;6.60;5.90;;;22.80;47.60;;;;;;6235451;23;20208;-88
2021/04/30 02:35:37;;;;;;;7.07;5.90;;;22.80;47.60;;;;;;6234465;23;20417;-88
2021/04/30 02:38:05;;;;;;;5.33;4.80;;;22.80;47.60;;;;;;6261326;22;20441;-88
2021/04/30 02:40:32;;;;;;;5.63;5.00;;;22.80;47.60;;;;;;6235163;23;20381;-88
2021/04/30 02:43:08;;;;;;;5.87;5.30;;;22.80;47.60;;;;;;6261871;22;20373;-88
2021/04/30 02:45:37;;;;;;;7.20;6.10;;;22.80;47.60;;;;;;6234751;23;20742;-88
2021/04/30 02:48:12;;;;;;;5.43;4.93;;;22.80;48.20;;;;;;6260617;22;20370;-87
2021/04/30 02:50:38;;;;;;;5.93;5.33;;;22.80;47.70;;;;;;6232933;23;20456;-86
2021/04/30 02:53:03;;;;;;;5.70;5.07;;;22.80;47.70;;;;;;6233268;23;20867;-86
2021/04/30 02:55:29;;;;;;;6.23;4.83;;;22.80;47.70;;;;;;6259482;22;20186;-86
2021/04/30 02:57:57;;;;;;;6.10;4.90;;;22.80;47.70;;;;;;6232956;23;20177;-86
2021/04/30 03:00:28;;;;;;;5.60;5.10;;;22.80;47.70;;;;;;6233300;23;20181;-87
2021/04/30 03:02:54;;;;;;;5.70;4.90;;;22.80;47.80;;;;;;6233552;23;20397;-87
2021/04/30 03:05:21;;;;;;;5.80;4.63;;;22.70;47.60;;;;;;6233357;23;20388;-86
2021/04/30 03:07:47;;;;;;;5.80;5.17;;;22.70;47.60;;;;;;6233872;23;20393;-87
2021/04/30 03:10:14;;;;;;;4.97;4.47;;;22.70;47.70;;;;;;6234191;23;20389;-88
2021/04/30 03:12:40;;;;;;;6.13;5.50;;;22.70;47.70;;;;;;6234297;23;20389;-88
2021/04/30 03:15:07;;;;;;;5.30;4.80;;;22.70;47.70;;;;;;6262531;22;20424;-88
2021/04/30 03:17:33;;;;;;;6.60;5.50;;;22.70;47.70;;;;;;6236844;23;20393;-85
2021/04/30 03:19:59;;;;;;;5.30;4.77;;;22.70;47.70;;;;;;6236929;23;20411;-87
2021/04/30 03:22:26;;;;;;;5.37;4.63;;;22.70;47.70;;;;;;6235720;23;20423;-86
2021/04/30 03:24:52;;;;;;;6.57;5.40;;;22.70;47.70;;;;;;6234155;23;20439;-84
2021/04/30 03:27:18;;;;;;;6.67;5.30;;;22.70;47.70;;;;;;6258094;22;20430;-86
2021/04/30 03:29:46;;;;;;;5.60;4.60;;;22.70;47.70;;;;;;6231040;23;20389;-86
2021/04/30 03:32:13;;;;;;;4.93;4.43;;;22.70;47.70;;;;;;6257757;22;20142;-86
2021/04/30 03:34:39;;;;;;;6.03;5.00;;;22.70;47.70;;;;;;6258322;22;20420;-86
2021/04/30 03:37:05;;;;;;;5.00;4.30;;;22.70;47.70;;;;;;6230901;23;20381;-86
2021/04/30 03:39:31;;;;;;;5.20;4.70;;;22.70;47.70;;;;;;6257489;23;20131;-86
2021/04/30 03:41:57;;;;;;;6.40;5.20;;;22.70;47.70;;;;;;6230511;23;20380;-86
2021/04/30 03:44:23;;;;;;;5.60;4.90;;;22.70;47.70;;;;;;6230472;23;20374;-85
2021/04/30 03:46:49;;;;;;;5.13;4.53;;;22.70;48.00;;;;;;6230615;23;20184;-86
2021/04/30 03:49:15;;;;;;;5.50;4.83;;;22.70;47.70;;;;;;6257515;22;20859;-86
2021/04/30 03:51:40;;;;;;;6.50;5.57;;;22.70;47.80;;;;;;6230261;23;20446;-86
2021/04/30 03:54:06;;;;;;;5.70;5.00;;;22.70;47.70;;;;;;6257923;22;20224;-86
2021/04/30 03:56:32;;;;;;;4.87;4.43;;;22.70;47.80;;;;;;6257642;22;20399;-86
2021/04/30 03:58:58;;;;;;;4.90;4.40;;;22.60;47.70;;;;;;6230081;23;20212;-86
2021/04/30 04:01:26;;;;;;;5.47;4.97;;;22.60;47.70;;;;;;6230752;23;20210;-86
2021/04/30 04:03:53;;;;;;;5.80;4.93;;;22.70;47.80;;;;;;6257847;22;20153;-86
2021/04/30 04:06:20;;;;;;;4.93;4.43;;;22.60;47.70;;;;;;6257732;22;20832;-86
2021/04/30 04:08:45;;;;;;;5.23;4.20;;;22.60;47.70;;;;;;6229931;23;20758;-86
2021/04/30 04:11:11;;;;;;;6.17;5.00;;;22.60;47.70;;;;;;6256723;22;20373;-85
2021/04/30 04:13:37;;;;;;;5.70;5.17;;;22.60;47.80;;;;;;6229863;23;20170;-86
2021/04/30 04:16:03;;;;;;;5.73;5.10;;;22.60;47.70;;;;;;6229384;23;20181;-86
2021/04/30 04:18:29;;;;;;;5.80;4.70;;;22.60;47.80;;;;;;6229085;23;20150;-86
2021/04/30 04:20:55;;;;;;;6.03;4.57;;;22.60;47.80;;;;;;6233578;23;20385;-86
2021/04/30 04:23:21;;;;;;;6.27;4.80;;;22.60;47.80;;;;;;6258381;22;20389;-86
2021/04/30 04:25:48;;;;;;;6.23;4.47;;;22.60;47.80;;;;;;6231494;23;20384;-86
2021/04/30 04:28:14;;;;;;;4.90;4.40;;;22.60;47.80;;;;;;6261968;22;20161;-86
2021/04/30 04:30:40;;;;;;;4.60;4.20;;;22.60;47.80;;;;;;6230438;23;20373;-86
2021/04/30 04:33:06;;;;;;;6.50;4.63;;;22.60;47.80;;;;;;6229736;23;20150;-86
2021/04/30 04:35:33;;;;;;;5.30;4.60;;;22.60;47.80;;;;;;6255299;22;20416;-86
2021/04/30 04:37:59;;;;;;;5.07;4.57;;;22.60;47.80;;;;;;6231324;23;20392;-86
2021/04/30 04:40:28;;;;;;;4.40;3.83;;;22.60;47.70;;;;;;6231955;23;20428;-86
2021/04/30 04:42:54;;;;;;;5.10;4.27;;;22.60;47.70;;;;;;6256754;22;20748;-86
2021/04/30 04:45:20;;;;;;;7.70;4.67;;;22.60;47.70;;;;;;6259291;22;20373;-86
2021/04/30 04:47:47;;;;;;;4.93;4.43;;;22.60;47.70;;;;;;6232882;23;20201;-87
2021/04/30 04:50:14;;;;;;;5.10;4.60;;;22.60;47.70;;;;;;6231053;23;20500;-87
2021/04/30 04:52:44;;;;;;;4.23;3.80;;;22.60;47.60;;;;;;6256352;22;20393;-88
2021/04/30 04:55:11;;;;;;;4.90;4.30;;;22.70;47.70;;;;;;6229775;23;20421;-86
2021/04/30 04:57:40;;;;;;;4.83;4.03;;;22.70;47.70;;;;;;6256209;22;20856;-87
2021/04/30 05:00:07;;;;;;;6.10;4.40;;;22.70;47.60;;;;;;6254108;22;20411;-87
2021/04/30 05:02:32;;;;;;;4.77;3.73;;;22.70;47.60;;;;;;6255744;22;20870;-87
2021/04/30 05:04:58;;;;;;;5.23;4.60;;;22.70;47.60;;;;;;6255227;22;20373;-86
2021/04/30 05:07:24;;;;;;;4.47;4.00;;;22.70;47.60;;;;;;6230633;23;20478;-87
2021/04/30 05:10:04;;;;;;;4.67;4.20;;;22.70;47.50;;;;;;5096546;28;20387;-86
2021/04/30 05:12:39;;;;;;;4.03;3.63;;;23.20;47.20;;;;;;5083229;28;20926;-87
2021/04/30 05:15:05;;;;;;;5.53;4.90;;;23.30;47.30;;;;;;5076088;28;20419;-86
2021/04/30 05:17:31;;;;;;;4.83;3.90;;;23.00;47.10;;;;;;5081593;28;20423;-86
2021/04/30 05:19:57;;;;;;;5.47;4.40;;;23.00;47.30;;;;;;5088551;28;20423;-86
2021/04/30 05:22:22;;;;;;;4.43;4.00;;;23.00;47.30;;;;;;5070777;28;20173;-87
2021/04/30 05:24:48;;;;;;;4.60;3.77;;;22.90;47.20;;;;;;5094703;28;20280;-87
2021/04/30 05:27:14;;;;;;;4.57;3.80;;;22.90;47.40;;;;;;5084958;28;20223;-87
2021/04/30 05:29:42;;;;;;;4.63;4.13;;;22.90;47.20;;;;;;5076575;28;20536;-86
2021/04/30 05:32:11;;;;;;;5.70;4.00;;;22.90;47.30;;;;;;5080444;28;20497;-86
2021/04/30 05:41:29;;;;;;;4.63;4.23;;;22.90;47.30;;;;;;5019101;28;21021;-86
2021/04/30 06:00:46;;;;;;;4.70;3.53;;;22.90;47.40;;;;;;5010328;28;20454;-82
2021/04/30 06:03:12;;;;;;;5.10;3.97;;;22.80;47.50;;;;;;5021586;28;20502;-82
2021/04/30 06:05:38;;;;;;;4.07;3.33;;;22.90;47.50;;;;;;5036578;28;20189;-82
2021/04/30 06:08:06;;;;;;;4.17;3.70;;;23.20;47.70;;;;;;5026830;28;20215;-86
2021/04/30 06:10:32;;;;;;;4.17;3.33;;;23.10;48.10;;;;;;5042883;28;20434;-82
2021/04/30 06:13:07;;;;;;;4.13;3.73;;;22.90;47.50;;;;;;5020023;28;20438;-82
2021/04/30 06:15:33;;;;;;;3.33;3.03;;;23.00;47.60;;;;;;5062884;28;20224;-82
2021/04/30 06:18:02;;;;;;;4.00;3.60;;;23.00;47.50;;;;;;5075562;28;20432;-82
2021/04/30 06:20:28;;;;;;;4.30;3.90;;;23.00;47.40;;;;;;5094553;28;20506;-83
2021/04/30 06:23:07;;;;;;;5.00;4.00;;;23.00;47.60;;;;;;5094512;28;20447;-84
2021/04/30 06:25:35;;;;;;;4.40;3.47;;;23.00;47.40;;;;;;5066173;28;20197;-84
2021/04/30 06:28:01;;;;;;;4.20;3.57;;;23.00;47.60;;;;;;5067889;28;20456;-85
2021/04/30 06:30:27;;;;;;;4.33;3.90;;;23.10;47.60;;;;;;5067479;28;20439;-85
2021/04/30 06:32:53;;;;;;;4.00;3.23;;;23.10;47.50;;;;;;5080606;28;20449;-85
2021/04/30 06:35:22;;;;;;;4.00;3.33;;;23.10;47.40;;;;;;5054690;28;20179;-85
2021/04/30 06:37:48;;;;;;;4.77;4.27;;;23.20;47.40;;;;;;5059762;28;20463;-85
2021/04/30 06:40:14;;;;;;;3.90;3.43;;;23.20;47.40;;;;;;5074485;28;20436;-86
2021/04/30 06:42:46;;;;;;;4.10;3.67;;;23.20;47.30;;;;;;5087517;28;20194;-85
2021/04/30 06:45:12;;;;;;;4.10;3.70;;;23.30;47.30;;;;;;5079945;28;20237;-85
2021/04/30 06:47:39;;;;;;;4.20;3.60;;;23.30;48.00;;;;;;5086425;28;20413;-85
2021/04/30 06:50:05;;;;;;;3.77;3.27;;;23.30;47.30;;;;;;5048891;28;20220;-85
2021/04/30 06:52:31;;;;;;;3.70;3.40;;;23.30;47.40;;;;;;5065077;28;20389;-86
2021/04/30 06:54:56;;;;;;;4.60;4.20;;;23.40;47.50;;;;;;5067892;28;21015;-85
2021/04/30 06:57:22;;;;;;;3.97;3.47;;;23.40;47.70;;;;;;5081216;28;20189;-85
2021/04/30 06:59:48;;;;;;;3.57;3.27;;;23.40;47.50;;;;;;5065736;28;20185;-85
2021/04/30 07:02:14;;;;;;;4.00;3.00;;;23.40;47.50;;;;;;5074986;28;20191;-85
2021/04/30 07:04:43;;;;;;;4.10;3.23;;;23.40;47.40;;;;;;5057173;28;20175;-85
2021/04/30 07:07:09;;;;;;;3.50;3.20;;;23.40;47.40;;;;;;5088363;28;20170;-86
2021/04/30 07:09:43;;;;;;;3.93;3.10;;;23.50;47.50;;;;;;5084916;28;20466;-86
2021/04/30 07:12:13;;;;;;;4.07;3.67;;;23.50;47.40;;;;;;5054521;28;20207;-86
2021/04/30 07:14:39;;;;;;;4.30;3.90;;;23.50;47.40;;;;;;5071517;28;20424;-86
2021/04/30 07:17:07;;;;;;;4.10;3.70;;;23.50;47.50;;;;;;5087599;28;20412;-86
2021/04/30 07:19:36;;;;;;;4.30;3.90;;;23.50;47.40;;;;;;5068399;28;20190;-85
2021/04/30 07:22:02;;;;;;;3.20;2.90;;;23.50;47.40;;;;;;5070734;28;20436;-86
2021/04/30 07:24:27;;;;;;;3.80;3.03;;;23.50;47.50;;;;;;5069194;28;20427;-85
2021/04/30 07:26:54;;;;;;;3.17;2.87;;;23.50;47.60;;;;;;5064116;28;20194;-86
2021/04/30 07:29:20;;;;;;;3.40;3.10;;;23.50;47.40;;;;;;5069628;28;20220;-86
2021/04/30 07:32:04;;;;;;;3.20;2.90;;;23.60;47.50;;;;;;5063994;28;20440;-87
2021/04/30 07:34:30;;;;;;;3.60;3.30;;;23.60;47.50;;;;;;5065918;28;20151;-87
2021/04/30 07:37:05;;;;;;;4.30;2.60;;;23.60;47.50;;;;;;5049614;28;20425;-86
2021/04/30 07:39:43;;;;;;;4.50;3.00;;;23.60;47.50;;;;;;5082420;28;20202;-86
2021/04/30 07:42:49;;;;;;;;;;;;;;;;;;;;;
2021/04/30 07:55:18;;;;;;;3.77;3.47;;;23.60;47.50;;;;;;5004806;28;20408;-89
2021/04/30 07:57:50;;;;;;;6.20;3.50;;;23.60;47.60;;;;;;4988290;28;20420;-87
2021/04/30 08:00:21;;;;;;;3.83;2.97;;;23.60;47.70;;;;;;5005637;28;20407;-88
2021/04/30 08:06:51;;;;;;;3.90;3.50;;;23.70;47.60;;;;;;4966050;29;20413;-88
2021/04/30 08:09:18;;;;;;;3.27;2.97;;;23.70;47.70;;;;;;4985930;28;20472;-89
2021/04/30 08:11:53;;;;;;;3.23;2.93;;;23.70;47.60;;;;;;5007290;28;20408;-89
2021/04/30 08:14:19;;;;;;;3.60;2.83;;;23.70;47.60;;;;;;4991049;28;20423;-88
2021/04/30 08:16:52;;;;;;;4.80;2.80;;;23.70;47.70;;;;;;5009816;28;20528;-88
2021/04/30 08:19:18;;;;;;;4.03;2.97;;;23.70;47.60;;;;;;4993804;28;20413;-88
2021/04/30 08:21:54;;;;;;;3.07;2.77;;;23.70;47.70;;;;;;4991157;28;20428;-88
2021/04/30 08:24:28;;;;;;;3.80;3.00;;;23.70;47.60;;;;;;4992586;28;20427;-89
2021/04/30 08:27:07;;;;;;;4.70;2.90;;;23.70;47.60;;;;;;5017307;28;20417;-88
2021/04/30 08:33:16;;;;;;;2.83;2.60;;;23.80;47.60;;;;;;5013626;28;20419;-88
2021/04/30 08:35:44;;;;;;;3.00;2.70;;;23.80;47.70;;;;;;5041382;28;20422;-89
2021/04/30 08:45:14;;;;;;;3.50;2.97;;;23.80;47.60;;;;;;5004456;28;20512;-89
2021/04/30 08:47:41;;;;;;;2.50;2.30;;;23.80;47.80;;;;;;5004675;28;20412;-88
2021/04/30 08:50:08;;;;;;;3.30;2.57;;;23.80;47.80;;;;;;4998557;28;20507;-89
2021/04/30 08:52:36;;;;;;;3.60;2.97;;;23.90;47.80;;;;;;5016664;28;20420;-89
2021/04/30 08:55:10;;;;;;;3.27;2.97;;;23.80;47.80;;;;;;5004579;28;20432;-88
2021/04/30 09:04:40;;;;;;;3.63;2.93;;;23.90;47.80;;;;;;4944118;29;20410;-90
2021/04/30 09:07:16;;;;;;;3.23;2.90;;;23.80;47.80;;;;;;4944610;29;20430;-90
2021/04/30 09:20:08;;;;;;;2.60;2.40;;;23.90;47.90;;;;;;4946638;29;20402;-89
2021/04/30 09:23:02;;;;;;;3.30;2.40;;;23.90;47.90;;;;;;4947420;29;20427;-90
2021/04/30 09:36:01;;;;;;;3.50;2.30;;;23.80;47.90;;;;;;4917881;29;20431;-89
2021/04/30 09:38:47;;;;;;;2.80;2.23;;;23.90;47.90;;;;;;4928752;29;20471;-88
2021/04/30 09:41:16;;;;;;;4.57;2.80;;;23.90;47.90;;;;;;4909957;29;20525;-89
2021/04/30 09:43:52;;;;;;;3.10;2.53;;;23.90;47.90;;;;;;4913442;29;20637;-89
2021/04/30 09:46:34;;;;;;;4.40;2.17;;;23.90;47.90;;;;;;4952232;28;20505;-90
2021/04/30 09:56:40;;;;;;;2.57;2.37;;;24.00;47.90;;;;;;4942470;29;20490;-89
2021/04/30 09:59:32;;;;;;;2.37;2.03;;;24.00;47.90;;;;;;4957538;28;20818;-89
2021/04/30 10:02:05;;;;;;;4.13;2.87;;;24.00;47.90;;;;;;5001824;28;20428;-90
2021/04/30 10:07:56;;;;;;;2.23;2.03;;;24.00;47.90;;;;;;5003698;28;20855;-88
2021/04/30 10:10:46;;;;;;;2.47;2.10;;;24.00;48.10;;;;;;5012146;28;20523;-88
2021/04/30 10:14:13;;;;;;;;;;;;;;;;;;;;;
2021/04/30 10:16:53;;;;;;;2.60;2.10;;;24.00;47.90;;;;;;5007214;28;20525;-87
2021/04/30 10:19:21;;;;;;;2.50;2.30;;;24.00;47.90;;;;;;5007036;28;20420;-87
2021/04/30 10:21:50;;;;;;;4.70;2.53;;;24.00;47.90;;;;;;4988828;28;20459;-87
2021/04/30 10:24:17;;;;;;;3.13;2.40;;;24.00;47.80;;;;;;4991422;28;20468;-86
2021/04/30 10:26:54;;;;;;;2.37;2.17;;;24.00;47.80;;;;;;5015087;28;20418;-86
2021/04/30 10:31:59;;;;;;;3.93;2.50;;;24.00;47.70;;;;;;5034360;28;20469;-87
2021/04/30 10:34:37;;;;;;;4.53;2.67;;;24.10;47.80;;;;;;5012838;28;20474;-86
2021/04/30 10:41:18;;;;;;;4.87;3.60;;;24.10;47.80;;;;;;4948031;29;20518;-86
2021/04/30 10:47:24;;;;;;;7.13;4.90;;;24.00;47.70;;;;;;4934091;29;20442;-87
2021/04/30 10:50:24;;;;;;;9.63;4.83;;;24.00;47.80;;;;;;4938438;29;20479;-84
2021/04/30 11:07:15;;;;;;;12.47;6.10;;;23.90;47.80;;;;;;4822264;29;20896;-85
2021/04/30 11:09:44;;;;;;;14.27;6.77;;;23.90;47.80;;;;;;4820250;29;20465;-86
2021/04/30 11:13:13;;;;;;;;;;;;;;;;;;;;;
2021/04/30 11:16:16;;;;;;;;;;;;;;;;;;;;;
2021/04/30 11:19:04;;;;;;;12.33;6.33;;;23.90;47.80;;;;;;4875537;29;20494;-84
2021/04/30 11:22:11;;;;;;;15.07;7.63;;;23.90;47.80;;;;;;4876570;29;20407;-85
2021/04/30 11:27:46;;;;;;;16.40;7.10;;;23.90;47.80;;;;;;4891578;29;20792;-85
2021/04/30 11:30:30;;;;;;;12.47;6.87;;;23.90;47.80;;;;;;4900538;29;20449;-85
2021/04/30 11:33:06;;;;;;;10.33;7.77;;;23.90;47.70;;;;;;4913240;29;20858;-86
2021/04/30 11:35:38;;;;;;;10.87;7.43;;;23.90;47.70;;;;;;4897048;29;20638;-86
2021/04/30 11:38:46;;;;;;;15.27;6.83;;;23.90;47.70;;;;;;4938020;29;20458;-86
2021/04/30 11:41:31;;;;;;;14.57;7.90;;;23.90;47.70;;;;;;4969714;29;20429;-86
2021/04/30 11:44:52;;;;;;;18.23;9.27;;;23.90;47.70;;;;;;4969282;29;20421;-85
2021/04/30 11:47:38;;;;;;;19.17;8.67;;;23.90;47.70;;;;;;4892462;29;20440;-87
2021/04/30 11:50:19;;;;;;;14.80;7.43;;;23.90;47.80;;;;;;4911608;29;20484;-87
2021/04/30 11:52:52;;;;;;;14.17;7.87;;;23.80;47.70;;;;;;4911083;29;20423;-87
2021/04/30 11:55:29;;;;;;;14.17;8.20;;;23.80;47.70;;;;;;4910379;29;20919;-87
2021/04/30 11:58:09;;;;;;;14.93;7.33;;;23.80;47.80;;;;;;4909892;29;20409;-87
2021/04/30 12:01:06;;;;;;;15.73;8.33;;;23.80;47.80;;;;;;4909903;29;20416;-87
2021/04/30 12:03:47;;;;;;;16.87;8.13;;;23.80;47.80;;;;;;4910459;29;20421;-87
2021/04/30 12:07:13;;;;;;;;;;;;;;;;;;;;;
2021/04/30 12:10:06;;;;;;;;;;;;;;;;;;;;;
2021/04/30 12:13:01;;;;;;;17.60;8.67;;;23.80;47.90;;;;;;4893549;29;20503;-82
2021/04/30 12:15:51;;;;;;;17.03;8.87;;;23.70;47.80;;;;;;4902969;29;20429;-84
2021/04/30 12:18:20;;;;;;;21.60;10.07;;;23.70;47.90;;;;;;4913667;29;20512;-84
2021/04/30 12:21:08;;;;;;;16.00;9.83;;;23.70;48.00;;;;;;4914323;29;20420;-86
2021/04/30 12:23:36;;;;;;;19.70;9.90;;;23.70;47.80;;;;;;4934459;29;20457;-86
2021/04/30 12:26:06;;;;;;;20.00;9.70;;;23.70;47.90;;;;;;4948804;29;21146;-86
2021/04/30 12:32:21;;;;;;;20.17;10.07;;;23.70;47.80;;;;;;4965698;29;20437;-84
2021/04/30 12:35:33;;;;;;;19.40;10.10;;;23.70;47.80;;;;;;4964310;29;20414;-85
2021/04/30 12:37:59;;;;;;;18.20;9.93;;;23.70;47.80;;;;;;4966232;29;20526;-85
2021/04/30 12:40:28;;;;;;;21.43;11.10;;;23.70;47.80;;;;;;4949878;29;20422;-85
2021/04/30 12:42:58;;;;;;;19.07;9.67;;;23.70;47.80;;;;;;4951207;29;20415;-88
2021/04/30 12:45:46;;;;;;;18.53;10.33;;;23.70;47.90;;;;;;4966208;29;20429;-87
2021/04/30 12:48:14;;;;;;;20.13;10.17;;;23.80;47.80;;;;;;4952108;29;20457;-87
2021/04/30 12:50:39;;;;;;;18.53;9.67;;;23.70;47.80;;;;;;4966941;29;20420;-84
2021/04/30 12:53:08;;;;;;;24.20;11.10;;;23.70;47.80;;;;;;4951333;29;20418;-87
2021/04/30 12:55:41;;;;;;;20.70;10.83;;;23.70;47.80;;;;;;4969099;29;20198;-84
2021/04/30 12:58:18;;;;;;;22.30;11.00;;;23.80;47.80;;;;;;4968767;29;20414;-86
2021/04/30 13:00:59;;;;;;;19.27;11.03;;;23.80;47.80;;;;;;4953356;29;20422;-85
2021/04/30 13:03:38;;;;;;;18.80;10.97;;;23.80;47.80;;;;;;4952133;29;20426;-85
2021/04/30 13:06:07;;;;;;;22.47;12.10;;;23.80;47.80;;;;;;4967330;29;20412;-84
2021/04/30 13:08:38;;;;;;;20.10;10.40;;;24.10;48.10;;;;;;4969405;29;20465;-85
2021/04/30 13:11:32;;;;;;;19.93;10.80;;;23.90;48.00;;;;;;4954317;29;20417;-84
2021/04/30 13:20:47;;;;;;;17.07;10.77;;;23.90;47.90;;;;;;4932467;29;20402;-83
2021/04/30 13:25:56;;;;;;;19.43;11.93;;;23.80;47.90;;;;;;5044849;22;20483;-83
2021/04/30 13:28:30;;;;;;;18.03;10.40;;;23.90;48.20;;;;;;5038488;28;20530;-83
2021/04/30 13:31:07;;;;;;;17.07;9.97;;;23.90;48.20;;;;;;5018938;28;20457;-84
2021/04/30 13:33:42;;;;;;;18.03;10.50;;;23.90;48.00;;;;;;5025934;28;20435;-84
2021/04/30 13:36:11;;;;;;;19.70;10.93;;;23.90;48.10;;;;;;5005020;28;20429;-84
2021/04/30 14:01:12;;;;;;;22.20;11.17;;;23.90;48.10;;;;;;4967492;28;20452;-81
2021/04/30 14:03:38;;;;;;;16.50;8.93;;;23.90;48.20;;;;;;4977704;28;20423;-80
2021/04/30 14:06:10;;;;;;;16.80;9.50;;;23.80;48.10;;;;;;4986468;28;20448;-80
2021/04/30 14:08:35;;;;;;;20.03;9.63;;;24.00;48.30;;;;;;4971358;28;20502;-80
2021/04/30 14:11:03;;;;;;;16.27;8.37;;;24.00;48.20;;;;;;4968162;28;20484;-81
2021/04/30 14:13:28;;;;;;;19.97;9.47;;;24.00;48.20;;;;;;4966128;28;20213;-82
2021/04/30 14:15:54;;;;;;;13.47;8.87;;;24.00;48.20;;;;;;4971232;28;20425;-81
2021/04/30 14:18:20;;;;;;;15.23;8.93;;;24.00;48.10;;;;;;4978282;28;20187;-82
2021/04/30 14:20:46;;;;;;;17.37;9.47;;;24.00;48.10;;;;;;4979843;28;20817;-82
2021/04/30 14:23:12;;;;;;;14.00;8.20;;;24.00;48.10;;;;;;4958227;28;20426;-82
2021/04/30 14:25:53;;;;;;;18.10;10.03;;;24.00;48.30;;;;;;4967316;28;20194;-86
2021/04/30 14:28:21;;;;;;;17.33;9.10;;;24.00;48.10;;;;;;4968012;28;20512;-83
2021/04/30 14:30:50;;;;;;;18.20;8.60;;;24.10;48.20;;;;;;4975130;28;20476;-83
2021/04/30 14:33:18;;;;;;;19.23;8.60;;;24.10;48.10;;;;;;4978919;28;20981;-83
2021/04/30 14:35:44;;;;;;;15.60;9.70;;;24.10;48.10;;;;;;5015835;28;20426;-84
2021/04/30 14:38:17;;;;;;;14.87;8.30;;;24.10;48.20;;;;;;5033851;28;20447;-83
2021/04/30 14:40:43;;;;;;;18.87;10.03;;;24.10;48.10;;;;;;4998465;28;20187;-82
2021/04/30 14:43:12;;;;;;;18.23;9.03;;;24.10;48.10;;;;;;5030494;28;20419;-81
2021/04/30 14:45:39;;;;;;;13.70;7.37;;;24.10;48.20;;;;;;5026106;28;20457;-82
2021/04/30 14:48:08;;;;;;;15.77;8.57;;;24.10;48.20;;;;;;5046875;28;20851;-81
2021/04/30 14:50:35;;;;;;;13.33;8.33;;;24.10;48.10;;;;;;5029632;28;20419;-82
2021/04/30 14:53:02;;;;;;;14.97;8.43;;;24.10;48.20;;;;;;5037653;28;20415;-83
2021/04/30 14:55:34;;;;;;;14.00;8.70;;;24.10;48.10;;;;;;5046620;28;20413;-81
2021/04/30 14:58:00;;;;;;;15.33;8.50;;;24.10;48.20;;;;;;5028876;28;20517;-82
2021/04/30 15:00:28;;;;;;;14.27;9.10;;;24.10;48.20;;;;;;5047400;28;20432;-81
2021/04/30 15:02:54;;;;;;;12.07;8.23;;;24.10;48.20;;;;;;5030057;28;20179;-83
2021/04/30 16:13:50;;;;;;;9.90;6.47;;;24.10;48.40;;;;;;4876227;29;20430;-83
2021/04/30 16:16:16;;;;;;;12.13;6.97;;;24.10;48.60;;;;;;4876617;29;20414;-84
2021/04/30 16:26:11;;;;;;;10.30;5.80;;;24.10;48.20;;;;;;4838304;29;20388;-85
2021/04/30 16:32:59;;;;;;;7.93;5.37;;;24.00;47.50;;;;;;4836527;29;20480;-84
2021/04/30 16:39:15;;;;;;;7.73;4.37;;;23.80;47.10;;;;;;4841690;29;20455;-84
2021/04/30 16:42:04;;;;;;;10.03;5.43;;;23.80;47.40;;;;;;4841805;29;20433;-84
2021/04/30 16:44:35;;;;;;;11.30;5.37;;;23.80;47.40;;;;;;4840877;29;20436;-84
2021/04/30 16:47:10;;;;;;;8.80;5.07;;;23.80;47.40;;;;;;4885711;29;20424;-84
2021/04/30 16:49:39;;;;;;;8.50;5.30;;;23.70;47.20;;;;;;4889897;29;20473;-84
2021/04/30 16:58:53;;;;;;;6.97;3.83;;;23.60;46.60;;;;;;4906390;29;20449;-85
2021/04/30 17:01:25;;;;;;;9.60;5.50;;;23.60;47.20;;;;;;4891193;29;20427;-88
2021/04/30 17:03:51;;;;;;;5.10;3.83;;;23.60;47.10;;;;;;4886608;29;20426;-86
2021/04/30 17:06:19;;;;;;;6.90;4.50;;;23.60;47.20;;;;;;4907208;29;20942;-86
2021/04/30 17:08:45;;;;;;;8.83;5.13;;;23.60;47.20;;;;;;4891152;29;20544;-84
2021/04/30 17:12:07;;;;;;;7.50;4.60;;;23.50;47.00;;;;;;4908883;29;20433;-83
2021/04/30 17:22:02;;;;;;;10.90;4.73;;;23.60;47.60;;;;;;4927123;28;21181;-85